Time,TemperatureF,DewpointF,PressureIn,WindDirection,WindDirectionDegrees,WindSpeedMPH,WindSpeedGustMPH,Humidity,HourlyPrecipIn,Conditions,Clouds,dailyrainin,SolarRadiationWatts/m^2,SoftwareType,DateUTC
2013-08-05 07:21:00,0.0,0.0,29.91,SSE,158,0.0,0.0,0,0.00,,---,0.00,0.00,VWS V14.01,2013-08-05 12:21:00,
2013-08-05 07:23:00,70.3,67.6,29.91,South,180,0.0,0.0,91,0.00,,---,0.00,0.00,VWS V14.01,2013-08-05 12:23:00,
2013-08-05 07:28:00,70.3,67.6,29.91,SSW,202,0.0,0.0,91,0.00,,---,0.00,0.00,VWS V14.01,2013-08-05 12:28:00,
2013-08-05 07:33:00,70.5,67.8,29.91,SSE,158,0.0,0.0,91,0.00,,---,0.00,0.00,VWS V14.01,2013-08-05 12:33:00,
2013-08-05 07:39:00,70.7,67.9,29.91,SSE,158,0.0,0.0,91,0.00,,---,0.00,0.00,VWS V14.01,2013-08-05 12:39:00,
2013-08-05 07:45:00,70.7,67.9,29.91,South,180,0.0,0.0,91,0.00,,---,0.00,0.00,VWS V14.01,2013-08-05 12:45:00,
2013-08-05 07:51:00,71.1,68.3,29.91,SSE,158,0.0,0.0,91,0.00,,---,0.00,0.00,VWS V14.01,2013-08-05 12:51:00,
2013-08-05 07:57:00,71.8,69.3,29.91,SE,135,0.0,0.0,92,0.00,,---,0.00,0.00,VWS V14.01,2013-08-05 12:57:00,
2013-08-05 08:02:00,71.8,69.0,29.91,SE,135,4.5,4.5,91,0.00,,---,0.00,0.00,VWS V14.01,2013-08-05 13:02:00,
2013-08-05 08:09:00,72.1,69.4,29.88,SE,135,0.0,0.0,91,0.00,,---,0.00,0.00,VWS V14.01,2013-08-05 13:09:00,
2013-08-05 08:14:00,72.5,69.7,29.88,SSE,158,0.0,0.0,91,0.00,,---,0.00,0.00,VWS V14.01,2013-08-05 13:14:00,
2013-08-05 08:19:00,72.9,70.1,29.88,SSE,158,4.7,7.4,91,0.00,,---,0.00,0.00,VWS V14.01,2013-08-05 13:19:00,
2013-08-05 08:24:00,72.9,70.1,29.88,SE,135,4.9,4.9,91,0.00,,---,0.00,0.00,VWS V14.01,2013-08-05 13:24:00,
2013-08-05 08:29:00,72.7,69.3,29.88,South,180,4.5,4.9,89,0.00,,---,0.00,0.00,VWS V14.01,2013-08-05 13:29:00,
2013-08-05 08:35:00,72.7,68.9,29.88,ESE,112,3.6,3.6,88,0.00,,---,0.00,0.00,VWS V14.01,2013-08-05 13:35:00,
2013-08-05 08:40:00,72.7,68.9,29.88,SSE,158,2.9,2.9,88,0.00,,---,0.00,0.00,VWS V14.01,2013-08-05 13:40:00,
2013-08-05 08:50:00,72.9,68.4,29.88,SE,135,4.7,4.7,86,0.00,,---,0.00,0.00,VWS V14.01,2013-08-05 13:50:00,
2013-08-05 08:55:00,72.9,67.4,29.88,SSE,158,5.8,7.6,83,0.00,,---,0.00,0.00,VWS V14.01,2013-08-05 13:55:00,
2013-08-05 09:00:00,72.9,67.1,29.88,SSE,158,3.4,3.4,82,0.00,,---,0.00,0.00,VWS V14.01,2013-08-05 14:00:00,
2013-08-05 09:06:00,72.9,66.7,29.88,South,180,4.0,4.0,81,0.00,,---,0.00,0.00,VWS V14.01,2013-08-05 14:06:00,
2013-08-05 09:10:00,72.9,66.7,29.91,SE,135,0.0,0.0,81,0.00,,---,0.00,0.00,VWS V14.01,2013-08-05 14:10:00,
2013-08-05 09:17:00,73.2,67.1,29.91,SSW,202,0.0,19.2,81,0.00,,---,0.00,0.00,VWS V14.01,2013-08-05 14:17:00,
2013-08-05 09:23:00,73.2,66.7,29.91,South,180,0.0,0.0,80,0.00,,---,0.00,0.00,VWS V14.01,2013-08-05 14:23:00,
2013-08-05 09:28:00,73.2,66.3,29.88,SSE,158,0.0,0.0,79,0.00,,---,0.00,0.00,VWS V14.01,2013-08-05 14:28:00,
2013-08-05 09:33:00,73.2,66.0,29.88,South,180,4.0,4.0,78,0.00,,---,0.00,0.00,VWS V14.01,2013-08-05 14:33:00,
2013-08-05 09:39:00,73.4,66.1,29.88,SSE,158,0.0,2.5,78,0.00,,---,0.00,0.00,VWS V14.01,2013-08-05 14:39:00,
2013-08-05 09:45:00,73.6,66.3,29.88,SSE,158,3.8,3.8,78,0.00,,---,0.00,0.00,VWS V14.01,2013-08-05 14:45:00,
2013-08-05 09:51:00,73.6,66.3,29.88,SSE,158,2.2,2.2,78,0.00,,---,0.00,0.00,VWS V14.01,2013-08-05 14:51:00,
2013-08-05 09:56:00,73.6,66.3,29.88,SSE,158,0.9,2.9,78,0.00,,---,0.00,0.00,VWS V14.01,2013-08-05 14:56:00,
2013-08-05 10:02:00,73.6,66.3,29.88,SSE,158,5.8,5.8,78,0.00,,---,0.00,0.00,VWS V14.01,2013-08-05 15:02:00,
2013-08-05 10:07:00,73.6,66.3,29.88,SSE,158,4.3,4.9,78,0.00,,---,0.00,0.00,VWS V14.01,2013-08-05 15:07:00,
2013-08-05 10:12:00,74.3,65.9,29.88,SSE,158,0.0,0.0,75,0.00,,---,0.00,0.00,VWS V14.01,2013-08-05 15:12:00,
2013-08-05 10:18:00,74.5,66.0,29.88,SW,225,0.0,0.0,75,0.00,,---,0.00,0.00,VWS V14.01,2013-08-05 15:18:00,
2013-08-05 10:24:00,74.7,65.8,29.88,South,180,0.0,0.0,74,0.00,,---,0.00,0.00,VWS V14.01,2013-08-05 15:24:00,
2013-08-05 10:29:00,74.7,65.0,29.88,SSE,158,3.1,3.1,72,0.00,,---,0.00,0.00,VWS V14.01,2013-08-05 15:29:00,
2013-08-05 10:35:00,74.8,64.8,29.88,SE,135,4.3,4.3,71,0.00,,---,0.00,0.00,VWS V14.01,2013-08-05 15:35:00,
2013-08-05 10:41:00,74.8,64.8,29.88,SE,135,4.3,4.3,71,0.00,,---,0.00,0.00,VWS V14.01,2013-08-05 15:41:00,
2013-08-05 10:47:00,75.0,65.0,29.88,South,180,0.0,0.0,71,0.00,,---,0.00,0.00,VWS V14.01,2013-08-05 15:47:00,
2013-08-05 10:52:00,75.4,64.9,29.88,SSW,202,0.0,1.1,70,0.00,,---,0.00,0.00,VWS V14.01,2013-08-05 15:52:00,
2013-08-05 10:58:00,75.4,64.9,29.88,WSW,248,0.0,0.0,70,0.00,,---,0.00,0.00,VWS V14.01,2013-08-05 15:58:00,
2013-08-05 11:04:00,75.6,64.7,29.88,SSE,158,0.0,1.1,69,0.00,,---,0.00,0.00,VWS V14.01,2013-08-05 16:04:00,
2013-08-05 11:09:00,75.6,64.7,29.88,South,180,0.0,3.1,69,0.00,,---,0.00,0.00,VWS V14.01,2013-08-05 16:09:00,
2013-08-05 11:15:00,75.7,64.0,29.88,East,90,0.0,0.0,67,0.00,,---,0.00,0.00,VWS V14.01,2013-08-05 16:15:00,
2013-08-05 11:20:00,75.9,64.2,29.88,ESE,112,0.0,0.0,67,0.00,,---,0.00,0.00,VWS V14.01,2013-08-05 16:20:00,
2013-08-05 11:26:00,75.9,64.2,29.91,SE,135,0.0,0.0,67,0.00,,---,0.00,0.00,VWS V14.01,2013-08-05 16:26:00,
2013-08-05 11:32:00,76.1,64.4,29.91,NNE,22,0.0,0.0,67,0.00,,---,0.00,0.00,VWS V14.01,2013-08-05 16:32:00,
2013-08-05 11:38:00,75.9,63.3,29.91,NNW,338,0.0,0.0,65,0.00,,---,0.00,0.00,VWS V14.01,2013-08-05 16:38:00,
2013-08-05 11:44:00,76.1,63.5,29.91,NE,45,0.0,0.0,65,0.00,,---,0.00,0.00,VWS V14.01,2013-08-05 16:44:00,
2013-08-05 11:49:00,76.3,63.7,29.91,ENE,68,0.0,0.0,65,0.00,,---,0.00,0.00,VWS V14.01,2013-08-05 16:49:00,
2013-08-05 11:54:00,76.3,63.7,29.91,WNW,292,0.0,0.0,65,0.00,,---,0.00,0.00,VWS V14.01,2013-08-05 16:54:00,
2013-08-05 12:00:00,76.5,63.8,29.91,NNE,22,0.0,0.0,65,0.00,,---,0.00,0.00,VWS V14.01,2013-08-05 17:00:00,
2013-08-05 12:05:00,76.8,63.7,29.91,NNW,338,0.0,0.0,64,0.00,,---,0.00,0.00,VWS V14.01,2013-08-05 17:05:00,
2013-08-05 12:11:00,77.0,63.5,29.91,NNW,338,0.0,0.0,63,0.00,,---,0.00,0.00,VWS V14.01,2013-08-05 17:11:00,
2013-08-05 12:16:00,77.0,63.5,29.91,WSW,248,0.0,0.0,63,0.00,,---,0.00,0.00,VWS V14.01,2013-08-05 17:16:00,
2013-08-05 12:22:00,77.2,62.7,29.91,WSW,248,0.0,0.0,61,0.00,,---,0.00,0.00,VWS V14.01,2013-08-05 17:22:00,
2013-08-05 12:28:00,77.2,62.7,29.91,WNW,292,0.0,0.0,61,0.00,,---,0.00,0.00,VWS V14.01,2013-08-05 17:28:00,
2013-08-05 12:33:00,77.7,63.2,29.91,North,0,0.0,0.0,61,0.00,,---,0.00,0.00,VWS V14.01,2013-08-05 17:33:00,
2013-08-05 12:39:00,78.3,63.7,29.91,NNE,22,3.6,3.6,61,0.00,,---,0.00,0.00,VWS V14.01,2013-08-05 17:39:00,
2013-08-05 12:44:00,78.4,63.4,29.91,NNE,22,2.0,2.5,60,0.00,,---,0.00,0.00,VWS V14.01,2013-08-05 17:44:00,
2013-08-05 12:49:00,78.4,63.4,29.91,NNE,22,2.0,2.0,60,0.00,,---,0.00,0.00,VWS V14.01,2013-08-05 17:49:00,
2013-08-05 12:56:00,79.9,63.8,29.91,ESE,112,0.0,0.0,58,0.00,,---,0.00,0.00,VWS V14.01,2013-08-05 17:56:00,
2013-08-05 13:01:00,79.9,63.8,29.91,SSE,158,0.0,0.0,58,0.00,,---,0.00,0.00,VWS V14.01,2013-08-05 18:01:00,
2013-08-05 13:06:00,80.2,62.6,29.91,SE,135,0.0,0.0,55,0.00,,---,0.00,0.00,VWS V14.01,2013-08-05 18:06:00,
2013-08-05 13:11:00,80.6,63.5,29.91,ENE,68,0.0,0.0,56,0.00,,---,0.00,0.00,VWS V14.01,2013-08-05 18:11:00,
2013-08-05 13:17:00,80.8,63.1,29.91,SE,135,2.0,2.0,55,0.00,,---,0.00,0.00,VWS V14.01,2013-08-05 18:17:00,
2013-08-05 13:23:00,81.7,64.0,29.91,South,180,5.8,5.8,55,0.00,,---,0.00,0.00,VWS V14.01,2013-08-05 18:23:00,
2013-08-05 13:28:00,82.2,62.9,29.91,ESE,112,1.1,1.6,52,0.00,,---,0.00,0.00,VWS V14.01,2013-08-05 18:28:00,
2013-08-05 13:34:00,82.9,63.5,29.91,SE,135,2.5,2.5,52,0.00,,---,0.00,0.00,VWS V14.01,2013-08-05 18:34:00,
2013-08-05 13:41:00,83.3,63.3,29.88,East,90,0.0,2.0,51,0.00,,---,0.00,0.00,VWS V14.01,2013-08-05 18:41:00,
2013-08-05 13:46:00,83.7,61.9,29.88,ENE,68,0.0,0.0,48,0.00,,---,0.00,0.00,VWS V14.01,2013-08-05 18:46:00,
2013-08-05 13:52:00,83.7,60.1,29.88,SSE,158,3.1,3.1,45,0.00,,---,0.00,0.00,VWS V14.01,2013-08-05 18:52:00,
2013-08-05 13:57:00,83.3,59.8,29.88,ENE,68,2.9,2.9,45,0.00,,---,0.00,0.00,VWS V14.01,2013-08-05 18:57:00,
2013-08-05 14:03:00,83.1,60.2,29.88,ENE,68,2.9,2.9,46,0.00,,---,0.00,0.00,VWS V14.01,2013-08-05 19:03:00,
2013-08-05 14:09:00,84.2,60.6,29.88,ESE,112,7.2,7.2,45,0.00,,---,0.00,0.00,VWS V14.01,2013-08-05 19:09:00,
2013-08-05 14:14:00,84.7,61.1,29.88,East,90,1.6,1.6,45,0.00,,---,0.00,0.00,VWS V14.01,2013-08-05 19:14:00,
2013-08-05 14:20:00,85.6,60.6,29.88,ENE,68,1.6,1.6,43,0.00,,---,0.00,0.00,VWS V14.01,2013-08-05 19:20:00,
2013-08-05 14:26:00,85.8,60.1,29.88,SSE,158,6.3,6.3,42,0.00,,---,0.00,0.00,VWS V14.01,2013-08-05 19:26:00,
2013-08-05 14:32:00,86.4,59.9,29.88,SSE,158,3.6,3.6,41,0.00,,---,0.00,0.00,VWS V14.01,2013-08-05 19:32:00,
2013-08-05 14:37:00,86.4,58.5,29.88,SE,135,2.7,3.4,39,0.00,,---,0.00,0.00,VWS V14.01,2013-08-05 19:37:00,
2013-08-05 14:42:00,86.2,58.3,29.88,NNW,338,0.0,2.9,39,0.00,,---,0.00,0.00,VWS V14.01,2013-08-05 19:42:00,
2013-08-05 14:47:00,86.4,58.5,29.88,SSW,202,0.0,0.0,39,0.00,,---,0.00,0.00,VWS V14.01,2013-08-05 19:47:00,
2013-08-05 14:53:00,86.9,58.3,29.85,NE,45,2.0,2.9,38,0.00,,---,0.00,0.00,VWS V14.01,2013-08-05 19:53:00,
2013-08-05 14:58:00,86.5,57.9,29.85,SE,135,2.7,2.7,38,0.00,,---,0.00,0.00,VWS V14.01,2013-08-05 19:58:00,
2013-08-05 15:05:00,86.4,56.3,29.85,SE,135,3.4,3.4,36,0.00,,---,0.00,0.00,VWS V14.01,2013-08-05 20:05:00,
2013-08-05 15:10:00,85.5,56.2,29.85,SE,135,3.1,3.1,37,0.00,,---,0.00,0.00,VWS V14.01,2013-08-05 20:10:00,
2013-08-05 15:15:00,85.6,57.9,29.85,ESE,112,0.0,1.1,39,0.00,,---,0.00,0.00,VWS V14.01,2013-08-05 20:15:00,
2013-08-05 15:20:00,86.0,57.5,29.85,East,90,0.0,3.8,38,0.00,,---,0.00,0.00,VWS V14.01,2013-08-05 20:20:00,
2013-08-05 15:26:00,86.5,57.9,29.85,SSW,202,3.4,5.4,38,0.00,,---,0.00,0.00,VWS V14.01,2013-08-05 20:26:00,
2013-08-05 15:31:00,86.5,57.9,29.85,SSE,158,5.6,5.6,38,0.00,,---,0.00,0.00,VWS V14.01,2013-08-05 20:31:00,
2013-08-05 15:37:00,86.5,56.4,29.85,SSW,202,3.4,3.4,36,0.00,,---,0.00,0.00,VWS V14.01,2013-08-05 20:37:00,
2013-08-05 15:43:00,86.5,55.7,29.85,South,180,4.3,4.3,35,0.00,,---,0.00,0.00,VWS V14.01,2013-08-05 20:43:00,
2013-08-05 15:48:00,86.2,55.3,29.85,SE,135,5.4,7.8,35,0.00,,---,0.00,0.00,VWS V14.01,2013-08-05 20:48:00,
2013-08-05 15:53:00,86.5,56.4,29.82,South,180,3.4,3.4,36,0.00,,---,0.00,0.00,VWS V14.01,2013-08-05 20:53:00,
2013-08-05 15:59:00,86.7,55.8,29.82,SE,135,3.1,5.8,35,0.00,,---,0.00,0.00,VWS V14.01,2013-08-05 20:59:00,
2013-08-05 16:04:00,87.1,56.1,29.82,South,180,2.9,5.6,35,0.00,,---,0.00,0.00,VWS V14.01,2013-08-05 21:04:00,
2013-08-05 16:10:00,87.8,56.0,29.82,SSE,158,6.3,6.3,34,0.00,,---,0.00,0.00,VWS V14.01,2013-08-05 21:10:00,
2013-08-05 16:16:00,87.8,54.3,29.82,SE,135,6.0,6.0,32,0.00,,---,0.00,0.00,VWS V14.01,2013-08-05 21:16:00,
2013-08-05 16:21:00,87.8,54.3,29.82,South,180,2.0,2.0,32,0.00,,---,0.00,0.00,VWS V14.01,2013-08-05 21:21:00,
2013-08-05 16:26:00,87.8,54.3,29.82,SSW,202,5.6,5.6,32,0.00,,---,0.00,0.00,VWS V14.01,2013-08-05 21:26:00,
2013-08-05 16:32:00,87.4,54.0,29.82,SSE,158,5.4,5.4,32,0.00,,---,0.00,0.00,VWS V14.01,2013-08-05 21:32:00,
2013-08-05 16:38:00,87.4,54.0,29.79,South,180,2.9,2.9,32,0.00,,---,0.00,0.00,VWS V14.01,2013-08-05 21:38:00,
2013-08-05 16:43:00,85.5,53.1,29.79,SW,225,5.6,6.5,33,0.00,,---,0.00,0.00,VWS V14.01,2013-08-05 21:43:00,
2013-08-05 16:50:00,85.8,54.2,29.79,South,180,4.3,4.3,34,0.00,,---,0.00,0.00,VWS V14.01,2013-08-05 21:50:00,
2013-08-05 16:56:00,85.8,53.4,29.76,South,180,10.5,10.5,33,0.00,,---,0.00,0.00,VWS V14.01,2013-08-05 21:56:00,
2013-08-05 17:02:00,85.8,53.4,29.76,SSW,202,6.5,7.6,33,0.00,,---,0.00,0.00,VWS V14.01,2013-08-05 22:02:00,
2013-08-05 17:07:00,85.5,53.1,29.79,South,180,3.8,7.8,33,0.00,,---,0.00,0.00,VWS V14.01,2013-08-05 22:07:00,
2013-08-05 17:12:00,85.3,53.8,29.79,SSW,202,4.3,4.3,34,0.00,,---,0.00,0.00,VWS V14.01,2013-08-05 22:12:00,
2013-08-05 17:18:00,84.7,53.3,29.79,South,180,2.7,4.0,34,0.00,,---,0.00,0.00,VWS V14.01,2013-08-05 22:18:00,
2013-08-05 17:23:00,84.6,53.1,29.79,SSW,202,7.8,7.8,34,0.00,,---,0.00,0.00,VWS V14.01,2013-08-05 22:23:00,
2013-08-05 17:28:00,84.0,53.5,29.79,SSW,202,4.3,4.3,35,0.00,,---,0.00,0.00,VWS V14.01,2013-08-05 22:28:00,
2013-08-05 17:34:00,83.8,54.1,29.79,SSW,202,7.2,7.2,36,0.00,,---,0.00,0.00,VWS V14.01,2013-08-05 22:34:00,
2013-08-05 17:39:00,83.8,54.1,29.79,SSE,158,4.0,4.0,36,0.00,,---,0.00,0.00,VWS V14.01,2013-08-05 22:39:00,
2013-08-05 17:45:00,83.1,54.9,29.79,South,180,8.1,8.7,38,0.00,,---,0.00,0.00,VWS V14.01,2013-08-05 22:45:00,
2013-08-05 17:51:00,82.8,56.0,29.79,South,180,5.4,10.1,40,0.00,,---,0.00,0.00,VWS V14.01,2013-08-05 22:51:00,
2013-08-05 17:56:00,82.6,55.8,29.79,SSW,202,4.0,6.0,40,0.00,,---,0.00,0.00,VWS V14.01,2013-08-05 22:56:00,
2013-08-05 18:02:00,82.8,56.0,29.79,South,180,2.2,2.2,40,0.00,,---,0.00,0.00,VWS V14.01,2013-08-05 23:02:00,
2013-08-05 18:08:00,83.8,57.7,29.79,WSW,248,5.6,5.6,41,0.00,,---,0.00,0.00,VWS V14.01,2013-08-05 23:08:00,
2013-08-05 18:14:00,83.5,56.6,29.79,SSW,202,3.8,3.8,40,0.00,,---,0.00,0.00,VWS V14.01,2013-08-05 23:14:00,
2013-08-05 18:19:00,83.3,56.5,29.79,SW,225,1.6,1.6,40,0.00,,---,0.00,0.00,VWS V14.01,2013-08-05 23:19:00,
2013-08-05 18:25:00,82.9,56.2,29.79,South,180,0.0,0.0,40,0.00,,---,0.00,0.00,VWS V14.01,2013-08-05 23:25:00,
2013-08-05 18:30:00,82.6,55.8,29.79,SSE,158,0.0,0.0,40,0.00,,---,0.00,0.00,VWS V14.01,2013-08-05 23:30:00,
2013-08-05 18:36:00,82.6,56.5,29.79,SE,135,0.0,0.0,41,0.00,,---,0.00,0.00,VWS V14.01,2013-08-05 23:36:00,
2013-08-05 18:43:00,83.1,57.0,29.79,SSE,158,0.0,0.0,41,0.00,,---,0.00,0.00,VWS V14.01,2013-08-05 23:43:00,
2013-08-05 18:49:00,83.3,57.2,29.79,SSE,158,0.0,0.0,41,0.00,,---,0.00,0.00,VWS V14.01,2013-08-05 23:49:00,
2013-08-05 18:54:00,83.1,56.3,29.76,SSE,158,0.0,0.0,40,0.00,,---,0.00,0.00,VWS V14.01,2013-08-05 23:54:00,
2013-08-05 19:02:00,83.1,56.3,29.76,SSE,158,0.0,0.0,40,0.00,,---,0.00,0.00,VWS V14.01,2013-08-06 00:02:00,
2013-08-05 19:07:00,82.6,56.5,29.79,ENE,68,0.0,0.0,41,0.00,,---,0.00,0.00,VWS V14.01,2013-08-06 00:07:00,
2013-08-05 19:12:00,82.4,56.4,29.79,ENE,68,0.0,0.0,41,0.00,,---,0.00,0.00,VWS V14.01,2013-08-06 00:12:00,
2013-08-05 19:18:00,82.4,56.4,29.79,ENE,68,0.0,0.0,41,0.00,,---,0.00,0.00,VWS V14.01,2013-08-06 00:18:00,
2013-08-05 19:23:00,82.4,56.4,29.76,ENE,68,0.0,0.0,41,0.00,,---,0.00,0.00,VWS V14.01,2013-08-06 00:23:00,
2013-08-05 19:29:00,82.0,56.0,29.76,NNE,22,0.0,0.0,41,0.00,,---,0.00,0.00,VWS V14.01,2013-08-06 00:29:00,
2013-08-05 19:34:00,81.5,55.5,29.76,NNE,22,0.0,0.0,41,0.00,,---,0.00,0.00,VWS V14.01,2013-08-06 00:34:00,
2013-08-05 19:39:00,81.1,55.9,29.79,NNE,22,0.0,0.0,42,0.00,,---,0.00,0.00,VWS V14.01,2013-08-06 00:39:00,
2013-08-05 19:45:00,80.8,55.6,29.79,NNE,22,0.0,0.0,42,0.00,,---,0.00,0.00,VWS V14.01,2013-08-06 00:45:00,
2013-08-05 19:50:00,80.2,56.4,29.79,NNW,338,0.0,0.0,44,0.00,,---,0.00,0.00,VWS V14.01,2013-08-06 00:50:00,
2013-08-05 19:55:00,80.2,57.0,29.79,NNW,338,0.0,0.0,45,0.00,,---,0.00,0.00,VWS V14.01,2013-08-06 00:55:00,
2013-08-05 20:00:00,80.1,56.8,29.79,NNE,22,0.0,0.0,45,0.00,,---,0.00,0.00,VWS V14.01,2013-08-06 01:00:00,
2013-08-05 20:06:00,80.1,56.8,29.79,NNE,22,0.0,0.0,45,0.00,,---,0.00,0.00,VWS V14.01,2013-08-06 01:06:00,
2013-08-05 20:11:00,79.5,57.0,29.79,NNW,338,0.0,0.0,46,0.00,,---,0.00,0.00,VWS V14.01,2013-08-06 01:11:00,
2013-08-05 20:16:00,79.3,57.4,29.79,NNE,22,0.0,0.0,47,0.00,,---,0.00,0.00,VWS V14.01,2013-08-06 01:16:00,
2013-08-05 20:22:00,78.8,56.9,29.82,NNE,22,0.0,0.0,47,0.00,,---,0.00,0.00,VWS V14.01,2013-08-06 01:22:00,
2013-08-05 20:28:00,78.8,56.9,29.82,NNE,22,0.0,0.0,47,0.00,,---,0.00,0.00,VWS V14.01,2013-08-06 01:28:00,
2013-08-05 20:34:00,78.4,57.7,29.82,NNW,338,0.0,0.0,49,0.00,,---,0.00,0.00,VWS V14.01,2013-08-06 01:34:00,
2013-08-05 20:39:00,78.1,57.4,29.82,NNE,22,0.0,0.0,49,0.00,,---,0.00,0.00,VWS V14.01,2013-08-06 01:39:00,
2013-08-05 20:45:00,78.1,57.4,29.82,NNW,338,0.0,0.0,49,0.00,,---,0.00,0.00,VWS V14.01,2013-08-06 01:45:00,
2013-08-05 20:51:00,77.7,58.2,29.82,NNW,338,0.0,0.0,51,0.00,,---,0.00,0.00,VWS V14.01,2013-08-06 01:51:00,
2013-08-05 20:57:00,77.7,58.2,29.82,NNE,22,0.0,0.0,51,0.00,,---,0.00,0.00,VWS V14.01,2013-08-06 01:57:00,
2013-08-05 21:02:00,77.7,58.2,29.82,NNE,22,0.0,0.0,51,0.00,,---,0.00,0.00,VWS V14.01,2013-08-06 02:02:00,
2013-08-05 21:08:00,77.0,58.6,29.82,NNW,338,0.0,0.0,53,0.00,,---,0.00,0.00,VWS V14.01,2013-08-06 02:08:00,
2013-08-05 21:13:00,76.8,58.4,29.82,NNW,338,0.0,0.0,53,0.00,,---,0.00,0.00,VWS V14.01,2013-08-06 02:13:00,
2013-08-05 21:18:00,76.6,58.8,29.82,NNW,338,0.0,0.0,54,0.00,,---,0.00,0.00,VWS V14.01,2013-08-06 02:18:00,
2013-08-05 21:24:00,76.1,58.3,29.82,SW,225,0.0,343.7,54,0.00,,---,0.00,0.00,VWS V14.01,2013-08-06 02:24:00,
2013-08-05 21:29:00,76.1,58.3,29.82,SSW,202,0.0,0.0,54,0.00,,---,0.00,0.00,VWS V14.01,2013-08-06 02:29:00,
2013-08-05 21:35:00,75.6,58.3,29.82,SSW,202,0.0,0.0,55,0.00,,---,0.00,0.00,VWS V14.01,2013-08-06 02:35:00,